sensor_id;sensor_type;location;lat;lon;timestamp;temperature;humidity
13113;DHT22;6622;49.752;6.100;2022-08-03T00:00:19;18.70;99.90
13113;DHT22;6622;49.752;6.100;2022-08-03T00:02:45;18.70;99.90
13113;DHT22;6622;49.752;6.100;2022-08-03T00:05:12;18.70;99.90
13113;DHT22;6622;49.752;6.100;2022-08-03T00:07:38;18.60;99.90
13113;DHT22;6622;49.752;6.100;2022-08-03T00:10:05;18.50;99.90
13113;DHT22;6622;49.752;6.100;2022-08-03T00:12:32;18.40;99.90
13113;DHT22;6622;49.752;6.100;2022-08-03T00:14:58;18.30;99.90
13113;DHT22;6622;49.752;6.100;2022-08-03T00:17:25;18.40;99.90
13113;DHT22;6622;49.752;6.100;2022-08-03T00:19:52;18.40;99.90
13113;DHT22;6622;49.752;6.100;2022-08-03T00:22:18;18.40;99.90
13113;DHT22;6622;49.752;6.100;2022-08-03T00:24:45;18.20;99.90
13113;DHT22;6622;49.752;6.100;2022-08-03T00:27:11;18.20;99.90
13113;DHT22;6622;49.752;6.100;2022-08-03T00:29:38;18.10;99.90
13113;DHT22;6622;49.752;6.100;2022-08-03T00:32:05;18.10;99.90
13113;DHT22;6622;49.752;6.100;2022-08-03T00:34:31;18.10;99.90
13113;DHT22;6622;49.752;6.100;2022-08-03T00:36:58;18.10;99.90
13113;DHT22;6622;49.752;6.100;2022-08-03T00:39:26;18.20;99.90
13113;DHT22;6622;49.752;6.100;2022-08-03T00:41:53;18.20;99.90
13113;DHT22;6622;49.752;6.100;2022-08-03T00:44:20;18.20;99.90
13113;DHT22;6622;49.752;6.100;2022-08-03T00:46:46;18.30;99.90
13113;DHT22;6622;49.752;6.100;2022-08-03T00:49:13;18.30;99.90
13113;DHT22;6622;49.752;6.100;2022-08-03T00:51:39;18.10;99.90
13113;DHT22;6622;49.752;6.100;2022-08-03T00:54:06;18.00;99.90
13113;DHT22;6622;49.752;6.100;2022-08-03T00:56:33;18.00;99.90
13113;DHT22;6622;49.752;6.100;2022-08-03T00:58:59;17.90;99.90
13113;DHT22;6622;49.752;6.100;2022-08-03T01:01:26;17.90;99.90
13113;DHT22;6622;49.752;6.100;2022-08-03T01:03:53;17.80;99.90
13113;DHT22;6622;49.752;6.100;2022-08-03T01:06:23;17.80;99.90
13113;DHT22;6622;49.752;6.100;2022-08-03T01:09:01;17.70;99.90
13113;DHT22;6622;49.752;6.100;2022-08-03T01:11:41;17.70;99.90
13113;DHT22;6622;49.752;6.100;2022-08-03T01:14:08;17.60;99.90
13113;DHT22;6622;49.752;6.100;2022-08-03T01:16:43;17.60;99.90
13113;DHT22;6622;49.752;6.100;2022-08-03T01:22:17;17.50;99.90
13113;DHT22;6622;49.752;6.100;2022-08-03T01:24:49;17.50;99.90
13113;DHT22;6622;49.752;6.100;2022-08-03T01:27:18;17.50;99.90
13113;DHT22;6622;49.752;6.100;2022-08-03T01:34:45;17.60;99.90
13113;DHT22;6622;49.752;6.100;2022-08-03T01:37:09;17.70;99.90
13113;DHT22;6622;49.752;6.100;2022-08-03T01:39:36;17.70;99.90
13113;DHT22;6622;49.752;6.100;2022-08-03T01:42:03;17.70;99.90
13113;DHT22;6622;49.752;6.100;2022-08-03T01:44:29;17.70;99.90
13113;DHT22;6622;49.752;6.100;2022-08-03T01:46:59;17.60;99.90
13113;DHT22;6622;49.752;6.100;2022-08-03T01:49:29;17.50;99.90
13113;DHT22;6622;49.752;6.100;2022-08-03T01:51:52;17.50;99.90
13113;DHT22;6622;49.752;6.100;2022-08-03T01:54:18;17.50;99.90
13113;DHT22;6622;49.752;6.100;2022-08-03T01:56:46;17.60;99.90
13113;DHT22;6622;49.752;6.100;2022-08-03T01:59:13;17.60;99.90
13113;DHT22;6622;49.752;6.100;2022-08-03T02:01:39;17.50;99.90
13113;DHT22;6622;49.752;6.100;2022-08-03T02:04:06;17.30;99.90
13113;DHT22;6622;49.752;6.100;2022-08-03T02:06:33;17.30;99.90
13113;DHT22;6622;49.752;6.100;2022-08-03T02:09:00;17.20;99.90
13113;DHT22;6622;49.752;6.100;2022-08-03T02:11:26;17.20;99.90
13113;DHT22;6622;49.752;6.100;2022-08-03T02:13:54;17.10;99.90
13113;DHT22;6622;49.752;6.100;2022-08-03T02:16:20;17.00;99.90
13113;DHT22;6622;49.752;6.100;2022-08-03T02:18:47;17.10;99.90
13113;DHT22;6622;49.752;6.100;2022-08-03T02:21:14;17.00;99.90
13113;DHT22;6622;49.752;6.100;2022-08-03T02:23:41;17.00;99.90
13113;DHT22;6622;49.752;6.100;2022-08-03T02:26:08;17.00;99.90
13113;DHT22;6622;49.752;6.100;2022-08-03T02:28:35;16.90;99.90
13113;DHT22;6622;49.752;6.100;2022-08-03T02:31:06;16.80;99.90
13113;DHT22;6622;49.752;6.100;2022-08-03T02:33:32;16.80;99.90
13113;DHT22;6622;49.752;6.100;2022-08-03T02:35:57;16.90;99.90
13113;DHT22;6622;49.752;6.100;2022-08-03T02:38:25;16.90;99.90
13113;DHT22;6622;49.752;6.100;2022-08-03T02:40:51;16.80;99.90
13113;DHT22;6622;49.752;6.100;2022-08-03T02:43:19;16.80;99.90
13113;DHT22;6622;49.752;6.100;2022-08-03T02:45:46;16.80;99.90
13113;DHT22;6622;49.752;6.100;2022-08-03T02:48:11;16.70;99.90
13113;DHT22;6622;49.752;6.100;2022-08-03T02:50:38;16.70;99.90
13113;DHT22;6622;49.752;6.100;2022-08-03T02:53:05;16.80;99.90
13113;DHT22;6622;49.752;6.100;2022-08-03T02:55:32;16.70;99.90
13113;DHT22;6622;49.752;6.100;2022-08-03T02:57:59;16.70;99.90
13113;DHT22;6622;49.752;6.100;2022-08-03T03:00:25;16.70;99.90
13113;DHT22;6622;49.752;6.100;2022-08-03T03:02:52;16.60;99.90
13113;DHT22;6622;49.752;6.100;2022-08-03T03:05:19;16.60;99.90
13113;DHT22;6622;49.752;6.100;2022-08-03T03:07:46;16.60;99.90
13113;DHT22;6622;49.752;6.100;2022-08-03T03:10:13;16.60;99.90
13113;DHT22;6622;49.752;6.100;2022-08-03T03:12:39;16.60;99.90
13113;DHT22;6622;49.752;6.100;2022-08-03T03:15:06;16.70;99.90
13113;DHT22;6622;49.752;6.100;2022-08-03T03:17:33;16.80;99.90
13113;DHT22;6622;49.752;6.100;2022-08-03T03:19:59;16.80;99.90
13113;DHT22;6622;49.752;6.100;2022-08-03T03:22:26;16.80;99.90
13113;DHT22;6622;49.752;6.100;2022-08-03T03:24:52;16.70;99.90
13113;DHT22;6622;49.752;6.100;2022-08-03T03:27:19;16.70;99.90
13113;DHT22;6622;49.752;6.100;2022-08-03T03:29:46;16.70;99.90
13113;DHT22;6622;49.752;6.100;2022-08-03T03:32:12;16.60;99.90
13113;DHT22;6622;49.752;6.100;2022-08-03T03:34:39;16.60;99.90
13113;DHT22;6622;49.752;6.100;2022-08-03T03:37:05;16.50;99.90
13113;DHT22;6622;49.752;6.100;2022-08-03T03:39:32;16.40;99.90
13113;DHT22;6622;49.752;6.100;2022-08-03T03:41:59;16.40;99.90
13113;DHT22;6622;49.752;6.100;2022-08-03T03:44:26;16.40;99.90
13113;DHT22;6622;49.752;6.100;2022-08-03T03:46:52;16.50;99.90
13113;DHT22;6622;49.752;6.100;2022-08-03T03:49:19;16.50;99.90
13113;DHT22;6622;49.752;6.100;2022-08-03T03:51:45;16.50;99.90
13113;DHT22;6622;49.752;6.100;2022-08-03T03:54:12;16.40;99.90
13113;DHT22;6622;49.752;6.100;2022-08-03T03:56:38;16.30;99.90
13113;DHT22;6622;49.752;6.100;2022-08-03T03:59:05;16.30;99.90
13113;DHT22;6622;49.752;6.100;2022-08-03T04:01:32;16.30;99.90
13113;DHT22;6622;49.752;6.100;2022-08-03T04:03:58;16.30;99.90
13113;DHT22;6622;49.752;6.100;2022-08-03T04:06:25;16.30;99.90
13113;DHT22;6622;49.752;6.100;2022-08-03T04:09:10;16.30;99.90
13113;DHT22;6622;49.752;6.100;2022-08-03T04:11:55;16.40;99.90
13113;DHT22;6622;49.752;6.100;2022-08-03T04:14:34;16.30;99.90
13113;DHT22;6622;49.752;6.100;2022-08-03T04:17:06;16.10;99.90
13113;DHT22;6622;49.752;6.100;2022-08-03T04:19:31;16.10;99.90
13113;DHT22;6622;49.752;6.100;2022-08-03T04:21:57;16.00;99.90
13113;DHT22;6622;49.752;6.100;2022-08-03T04:24:23;16.10;99.90
13113;DHT22;6622;49.752;6.100;2022-08-03T04:26:49;16.10;99.90
13113;DHT22;6622;49.752;6.100;2022-08-03T04:29:16;16.30;99.90
13113;DHT22;6622;49.752;6.100;2022-08-03T04:31:42;16.40;99.90
13113;DHT22;6622;49.752;6.100;2022-08-03T04:34:10;16.40;99.90
13113;DHT22;6622;49.752;6.100;2022-08-03T04:36:38;16.40;99.90
13113;DHT22;6622;49.752;6.100;2022-08-03T04:39:07;16.30;99.90
13113;DHT22;6622;49.752;6.100;2022-08-03T04:41:33;16.10;99.90
13113;DHT22;6622;49.752;6.100;2022-08-03T04:43:59;16.10;99.90
13113;DHT22;6622;49.752;6.100;2022-08-03T04:46:36;16.00;99.90
13113;DHT22;6622;49.752;6.100;2022-08-03T04:48:53;16.00;99.90
13113;DHT22;6622;49.752;6.100;2022-08-03T04:51:19;16.10;99.90
13113;DHT22;6622;49.752;6.100;2022-08-03T04:53:46;16.10;99.90
13113;DHT22;6622;49.752;6.100;2022-08-03T04:56:12;16.10;99.90
13113;DHT22;6622;49.752;6.100;2022-08-03T04:58:40;16.10;99.90
13113;DHT22;6622;49.752;6.100;2022-08-03T05:01:06;16.00;99.90
13113;DHT22;6622;49.752;6.100;2022-08-03T05:03:33;16.10;99.90
13113;DHT22;6622;49.752;6.100;2022-08-03T05:06:00;16.10;99.90
13113;DHT22;6622;49.752;6.100;2022-08-03T05:08:27;16.20;99.90
13113;DHT22;6622;49.752;6.100;2022-08-03T05:10:54;16.20;99.90
13113;DHT22;6622;49.752;6.100;2022-08-03T05:13:20;16.30;99.90
13113;DHT22;6622;49.752;6.100;2022-08-03T05:15:48;16.50;99.90
13113;DHT22;6622;49.752;6.100;2022-08-03T05:18:14;16.50;99.90
13113;DHT22;6622;49.752;6.100;2022-08-03T05:20:44;16.50;99.90
13113;DHT22;6622;49.752;6.100;2022-08-03T05:23:10;16.60;99.90
13113;DHT22;6622;49.752;6.100;2022-08-03T05:25:37;16.80;99.90
13113;DHT22;6622;49.752;6.100;2022-08-03T05:28:04;17.30;99.90
13113;DHT22;6622;49.752;6.100;2022-08-03T05:30:30;17.90;99.90
13113;DHT22;6622;49.752;6.100;2022-08-03T05:32:57;18.40;99.90
13113;DHT22;6622;49.752;6.100;2022-08-03T05:35:23;18.70;99.90
13113;DHT22;6622;49.752;6.100;2022-08-03T05:37:50;18.90;99.90
13113;DHT22;6622;49.752;6.100;2022-08-03T05:40:17;19.00;99.90
13113;DHT22;6622;49.752;6.100;2022-08-03T05:42:43;18.90;99.90
13113;DHT22;6622;49.752;6.100;2022-08-03T05:45:10;19.20;99.90
13113;DHT22;6622;49.752;6.100;2022-08-03T05:47:40;19.40;99.90
13113;DHT22;6622;49.752;6.100;2022-08-03T05:50:06;20.00;99.90
13113;DHT22;6622;49.752;6.100;2022-08-03T05:52:33;20.30;99.90
13113;DHT22;6622;49.752;6.100;2022-08-03T05:54:59;20.60;99.90
13113;DHT22;6622;49.752;6.100;2022-08-03T05:57:26;21.00;99.90
13113;DHT22;6622;49.752;6.100;2022-08-03T05:59:52;21.30;99.90
13113;DHT22;6622;49.752;6.100;2022-08-03T06:02:19;21.50;99.90
13113;DHT22;6622;49.752;6.100;2022-08-03T06:04:46;22.10;99.90
13113;DHT22;6622;49.752;6.100;2022-08-03T06:07:13;22.10;99.90
13113;DHT22;6622;49.752;6.100;2022-08-03T06:09:40;21.80;99.90
13113;DHT22;6622;49.752;6.100;2022-08-03T06:12:06;21.40;99.90
13113;DHT22;6622;49.752;6.100;2022-08-03T06:14:34;21.30;99.90
13113;DHT22;6622;49.752;6.100;2022-08-03T06:17:00;21.40;99.90
13113;DHT22;6622;49.752;6.100;2022-08-03T06:19:27;22.10;99.90
13113;DHT22;6622;49.752;6.100;2022-08-03T06:21:54;22.80;99.90
13113;DHT22;6622;49.752;6.100;2022-08-03T06:24:21;24.10;99.90
13113;DHT22;6622;49.752;6.100;2022-08-03T06:26:48;24.00;99.90
13113;DHT22;6622;49.752;6.100;2022-08-03T06:29:14;23.80;99.90
13113;DHT22;6622;49.752;6.100;2022-08-03T06:31:41;23.40;99.90
13113;DHT22;6622;49.752;6.100;2022-08-03T06:34:08;23.20;99.90
13113;DHT22;6622;49.752;6.100;2022-08-03T06:36:35;23.10;99.90
13113;DHT22;6622;49.752;6.100;2022-08-03T06:39:02;23.60;99.90
13113;DHT22;6622;49.752;6.100;2022-08-03T06:41:28;24.00;99.90
13113;DHT22;6622;49.752;6.100;2022-08-03T06:43:55;23.50;99.90
13113;DHT22;6622;49.752;6.100;2022-08-03T06:46:21;24.00;99.90
13113;DHT22;6622;49.752;6.100;2022-08-03T06:48:48;24.60;99.90
13113;DHT22;6622;49.752;6.100;2022-08-03T06:51:15;25.60;99.90
13113;DHT22;6622;49.752;6.100;2022-08-03T06:53:41;25.30;99.90
13113;DHT22;6622;49.752;6.100;2022-08-03T06:56:08;25.10;99.90
13113;DHT22;6622;49.752;6.100;2022-08-03T06:58:35;24.90;99.90
13113;DHT22;6622;49.752;6.100;2022-08-03T07:01:01;25.70;99.90
13113;DHT22;6622;49.752;6.100;2022-08-03T07:03:28;26.20;99.90
13113;DHT22;6622;49.752;6.100;2022-08-03T07:05:55;24.80;99.90
13113;DHT22;6622;49.752;6.100;2022-08-03T07:08:22;24.80;99.90
13113;DHT22;6622;49.752;6.100;2022-08-03T07:10:48;24.50;99.90
13113;DHT22;6622;49.752;6.100;2022-08-03T07:13:15;24.20;99.90
13113;DHT22;6622;49.752;6.100;2022-08-03T07:15:42;24.50;99.90
13113;DHT22;6622;49.752;6.100;2022-08-03T07:18:09;24.50;99.90
13113;DHT22;6622;49.752;6.100;2022-08-03T07:20:36;25.70;99.90
13113;DHT22;6622;49.752;6.100;2022-08-03T07:23:02;25.60;99.90
13113;DHT22;6622;49.752;6.100;2022-08-03T07:25:30;25.30;99.90
13113;DHT22;6622;49.752;6.100;2022-08-03T07:27:56;25.30;99.90
13113;DHT22;6622;49.752;6.100;2022-08-03T07:30:23;25.70;99.90
13113;DHT22;6622;49.752;6.100;2022-08-03T07:32:50;25.70;99.90
13113;DHT22;6622;49.752;6.100;2022-08-03T07:35:17;26.10;99.90
13113;DHT22;6622;49.752;6.100;2022-08-03T07:37:44;26.00;99.90
13113;DHT22;6622;49.752;6.100;2022-08-03T07:40:10;26.00;99.90
13113;DHT22;6622;49.752;6.100;2022-08-03T07:42:37;25.90;99.90
13113;DHT22;6622;49.752;6.100;2022-08-03T07:45:04;25.70;99.90
13113;DHT22;6622;49.752;6.100;2022-08-03T07:47:31;25.80;99.90
13113;DHT22;6622;49.752;6.100;2022-08-03T07:49:58;26.50;99.90
13113;DHT22;6622;49.752;6.100;2022-08-03T07:52:24;26.80;99.90
13113;DHT22;6622;49.752;6.100;2022-08-03T07:55:09;27.30;99.90
13113;DHT22;6622;49.752;6.100;2022-08-03T07:57:36;27.10;99.90
13113;DHT22;6622;49.752;6.100;2022-08-03T08:00:07;27.20;99.90
13113;DHT22;6622;49.752;6.100;2022-08-03T08:02:32;27.40;99.90
13113;DHT22;6622;49.752;6.100;2022-08-03T08:04:58;28.00;99.90
13113;DHT22;6622;49.752;6.100;2022-08-03T08:07:25;28.40;99.90
13113;DHT22;6622;49.752;6.100;2022-08-03T08:09:52;28.40;99.90
13113;DHT22;6622;49.752;6.100;2022-08-03T08:12:19;28.70;99.90
13113;DHT22;6622;49.752;6.100;2022-08-03T08:14:46;28.70;99.90
13113;DHT22;6622;49.752;6.100;2022-08-03T08:17:13;28.60;99.90
13113;DHT22;6622;49.752;6.100;2022-08-03T08:19:39;28.80;99.90
13113;DHT22;6622;49.752;6.100;2022-08-03T08:22:06;29.20;99.90
13113;DHT22;6622;49.752;6.100;2022-08-03T08:24:33;29.20;99.90
13113;DHT22;6622;49.752;6.100;2022-08-03T08:27:00;29.30;99.90
13113;DHT22;6622;49.752;6.100;2022-08-03T08:29:26;29.50;99.90
13113;DHT22;6622;49.752;6.100;2022-08-03T08:31:54;29.50;99.90
13113;DHT22;6622;49.752;6.100;2022-08-03T08:34:20;29.40;99.90
13113;DHT22;6622;49.752;6.100;2022-08-03T08:36:47;29.50;99.90
13113;DHT22;6622;49.752;6.100;2022-08-03T08:39:13;29.60;99.90
13113;DHT22;6622;49.752;6.100;2022-08-03T08:41:40;29.80;99.90
13113;DHT22;6622;49.752;6.100;2022-08-03T08:44:07;29.90;99.90
13113;DHT22;6622;49.752;6.100;2022-08-03T08:46:33;30.30;99.90
13113;DHT22;6622;49.752;6.100;2022-08-03T08:49:00;30.20;99.90
13113;DHT22;6622;49.752;6.100;2022-08-03T08:51:28;30.40;99.90
13113;DHT22;6622;49.752;6.100;2022-08-03T08:53:53;30.10;99.90
13113;DHT22;6622;49.752;6.100;2022-08-03T08:56:21;30.20;99.90
13113;DHT22;6622;49.752;6.100;2022-08-03T08:58:48;30.50;99.90
13113;DHT22;6622;49.752;6.100;2022-08-03T09:01:13;30.80;99.90
13113;DHT22;6622;49.752;6.100;2022-08-03T09:03:40;30.80;99.90
13113;DHT22;6622;49.752;6.100;2022-08-03T09:06:07;30.80;99.90
13113;DHT22;6622;49.752;6.100;2022-08-03T09:08:34;30.70;99.90
13113;DHT22;6622;49.752;6.100;2022-08-03T09:11:00;31.10;99.90
13113;DHT22;6622;49.752;6.100;2022-08-03T09:13:28;31.10;99.90
13113;DHT22;6622;49.752;6.100;2022-08-03T09:16:12;31.10;99.90
13113;DHT22;6622;49.752;6.100;2022-08-03T09:18:36;31.30;99.90
13113;DHT22;6622;49.752;6.100;2022-08-03T09:21:26;31.30;99.90
13113;DHT22;6622;49.752;6.100;2022-08-03T09:23:52;31.50;99.90
13113;DHT22;6622;49.752;6.100;2022-08-03T09:26:28;31.40;99.90
13113;DHT22;6622;49.752;6.100;2022-08-03T09:29:03;31.50;99.90
13113;DHT22;6622;49.752;6.100;2022-08-03T09:31:33;31.60;99.90
13113;DHT22;6622;49.752;6.100;2022-08-03T09:34:06;31.90;99.90
13113;DHT22;6622;49.752;6.100;2022-08-03T09:36:38;31.90;99.90
13113;DHT22;6622;49.752;6.100;2022-08-03T09:39:05;32.20;99.90
13113;DHT22;6622;49.752;6.100;2022-08-03T09:41:30;32.00;99.90
13113;DHT22;6622;49.752;6.100;2022-08-03T09:43:57;31.70;99.90
13113;DHT22;6622;49.752;6.100;2022-08-03T09:46:24;31.70;99.90
13113;DHT22;6622;49.752;6.100;2022-08-03T09:48:51;31.80;99.90
13113;DHT22;6622;49.752;6.100;2022-08-03T09:51:19;32.20;99.90
13113;DHT22;6622;49.752;6.100;2022-08-03T09:53:44;31.60;99.90
13113;DHT22;6622;49.752;6.100;2022-08-03T09:56:11;32.00;99.90
13113;DHT22;6622;49.752;6.100;2022-08-03T09:58:45;32.00;99.90
13113;DHT22;6622;49.752;6.100;2022-08-03T10:01:11;32.10;99.90
13113;DHT22;6622;49.752;6.100;2022-08-03T10:03:38;32.10;99.90
13113;DHT22;6622;49.752;6.100;2022-08-03T10:06:14;32.30;99.90
13113;DHT22;6622;49.752;6.100;2022-08-03T10:08:40;32.20;99.90
13113;DHT22;6622;49.752;6.100;2022-08-03T10:11:06;32.40;99.90
13113;DHT22;6622;49.752;6.100;2022-08-03T10:13:33;32.40;99.90
13113;DHT22;6622;49.752;6.100;2022-08-03T10:15:59;32.60;99.90
13113;DHT22;6622;49.752;6.100;2022-08-03T10:18:26;32.90;99.90
13113;DHT22;6622;49.752;6.100;2022-08-03T10:20:54;32.90;99.90
13113;DHT22;6622;49.752;6.100;2022-08-03T10:23:20;32.80;99.90
13113;DHT22;6622;49.752;6.100;2022-08-03T10:25:48;32.70;99.90
13113;DHT22;6622;49.752;6.100;2022-08-03T10:28:14;32.60;99.90
13113;DHT22;6622;49.752;6.100;2022-08-03T10:30:40;32.50;99.90
13113;DHT22;6622;49.752;6.100;2022-08-03T10:33:09;32.40;99.90
13113;DHT22;6622;49.752;6.100;2022-08-03T10:35:34;32.40;99.90
13113;DHT22;6622;49.752;6.100;2022-08-03T10:38:03;32.50;99.90
13113;DHT22;6622;49.752;6.100;2022-08-03T10:40:28;32.90;99.90
13113;DHT22;6622;49.752;6.100;2022-08-03T10:42:54;33.10;99.90
13113;DHT22;6622;49.752;6.100;2022-08-03T10:45:27;33.10;99.90
13113;DHT22;6622;49.752;6.100;2022-08-03T10:47:54;33.10;99.90
13113;DHT22;6622;49.752;6.100;2022-08-03T10:50:22;32.70;99.90
13113;DHT22;6622;49.752;6.100;2022-08-03T10:52:56;33.00;99.90
13113;DHT22;6622;49.752;6.100;2022-08-03T10:55:29;33.20;99.90
13113;DHT22;6622;49.752;6.100;2022-08-03T10:58:14;33.30;99.90
13113;DHT22;6622;49.752;6.100;2022-08-03T11:00:49;33.30;99.90
13113;DHT22;6622;49.752;6.100;2022-08-03T11:03:16;33.50;99.90
13113;DHT22;6622;49.752;6.100;2022-08-03T11:05:43;33.10;99.90
13113;DHT22;6622;49.752;6.100;2022-08-03T11:08:19;32.70;99.90
13113;DHT22;6622;49.752;6.100;2022-08-03T11:10:45;32.50;99.90
13113;DHT22;6622;49.752;6.100;2022-08-03T11:13:15;32.50;99.90
13113;DHT22;6622;49.752;6.100;2022-08-03T11:15:43;32.50;99.90
13113;DHT22;6622;49.752;6.100;2022-08-03T11:18:08;32.70;99.90
13113;DHT22;6622;49.752;6.100;2022-08-03T11:20:53;33.20;99.90
13113;DHT22;6622;49.752;6.100;2022-08-03T11:23:38;33.60;99.90
13113;DHT22;6622;49.752;6.100;2022-08-03T11:28:34;33.90;99.90
13113;DHT22;6622;49.752;6.100;2022-08-03T11:39:16;34.30;99.90
13113;DHT22;6622;49.752;6.100;2022-08-03T11:41:42;34.00;99.90
13113;DHT22;6622;49.752;6.100;2022-08-03T11:44:09;33.90;99.90
13113;DHT22;6622;49.752;6.100;2022-08-03T11:46:39;33.70;99.90
13113;DHT22;6622;49.752;6.100;2022-08-03T11:49:05;33.40;99.90
13113;DHT22;6622;49.752;6.100;2022-08-03T11:51:32;33.30;99.90
13113;DHT22;6622;49.752;6.100;2022-08-03T11:54:03;33.40;99.90
13113;DHT22;6622;49.752;6.100;2022-08-03T11:56:50;33.40;99.90
13113;DHT22;6622;49.752;6.100;2022-08-03T11:58:56;33.50;99.90
13113;DHT22;6622;49.752;6.100;2022-08-03T12:01:23;33.80;99.90
13113;DHT22;6622;49.752;6.100;2022-08-03T12:03:49;34.00;99.90
13113;DHT22;6622;49.752;6.100;2022-08-03T12:06:16;33.90;99.90
13113;DHT22;6622;49.752;6.100;2022-08-03T12:08:43;33.90;99.90
13113;DHT22;6622;49.752;6.100;2022-08-03T12:11:11;33.60;99.90
13113;DHT22;6622;49.752;6.100;2022-08-03T12:13:41;33.50;99.90
13113;DHT22;6622;49.752;6.100;2022-08-03T12:16:06;33.60;99.90
13113;DHT22;6622;49.752;6.100;2022-08-03T12:18:33;33.60;99.90
13113;DHT22;6622;49.752;6.100;2022-08-03T12:21:06;33.70;99.90
13113;DHT22;6622;49.752;6.100;2022-08-03T12:23:29;33.60;99.90
13113;DHT22;6622;49.752;6.100;2022-08-03T12:26:00;33.50;99.90
13113;DHT22;6622;49.752;6.100;2022-08-03T12:28:22;33.50;99.90
13113;DHT22;6622;49.752;6.100;2022-08-03T12:30:49;33.50;99.90
13113;DHT22;6622;49.752;6.100;2022-08-03T12:33:22;33.30;99.90
13113;DHT22;6622;49.752;6.100;2022-08-03T12:36:05;33.30;99.90
13113;DHT22;6622;49.752;6.100;2022-08-03T12:38:34;33.30;99.90
13113;DHT22;6622;49.752;6.100;2022-08-03T12:41:01;32.80;99.90
13113;DHT22;6622;49.752;6.100;2022-08-03T12:43:26;33.00;99.90
13113;DHT22;6622;49.752;6.100;2022-08-03T12:46:15;33.30;99.90
13113;DHT22;6622;49.752;6.100;2022-08-03T12:49:04;33.20;99.90
13113;DHT22;6622;49.752;6.100;2022-08-03T12:51:27;33.20;99.90
13113;DHT22;6622;49.752;6.100;2022-08-03T12:53:53;33.10;99.90
13113;DHT22;6622;49.752;6.100;2022-08-03T12:56:19;33.30;99.90
13113;DHT22;6622;49.752;6.100;2022-08-03T12:58:46;33.10;99.90
13113;DHT22;6622;49.752;6.100;2022-08-03T13:01:15;33.00;99.90
13113;DHT22;6622;49.752;6.100;2022-08-03T13:03:43;33.10;99.90
13113;DHT22;6622;49.752;6.100;2022-08-03T13:06:15;33.30;99.90
13113;DHT22;6622;49.752;6.100;2022-08-03T13:08:38;33.70;99.90
13113;DHT22;6622;49.752;6.100;2022-08-03T13:11:24;33.40;99.90
13113;DHT22;6622;49.752;6.100;2022-08-03T13:13:50;33.30;99.90
13113;DHT22;6622;49.752;6.100;2022-08-03T13:16:16;33.50;99.90
13113;DHT22;6622;49.752;6.100;2022-08-03T13:18:43;33.60;99.90
13113;DHT22;6622;49.752;6.100;2022-08-03T13:21:09;33.70;99.90
13113;DHT22;6622;49.752;6.100;2022-08-03T13:23:36;33.80;99.90
13113;DHT22;6622;49.752;6.100;2022-08-03T13:26:03;33.90;99.90
13113;DHT22;6622;49.752;6.100;2022-08-03T13:28:29;34.00;99.90
13113;DHT22;6622;49.752;6.100;2022-08-03T13:30:56;34.00;99.90
13113;DHT22;6622;49.752;6.100;2022-08-03T13:33:23;33.80;99.90
13113;DHT22;6622;49.752;6.100;2022-08-03T13:35:49;33.70;99.90
13113;DHT22;6622;49.752;6.100;2022-08-03T13:38:16;33.70;99.90
13113;DHT22;6622;49.752;6.100;2022-08-03T13:40:42;33.80;99.90
13113;DHT22;6622;49.752;6.100;2022-08-03T13:43:09;34.00;99.90
13113;DHT22;6622;49.752;6.100;2022-08-03T13:45:36;34.10;99.90
13113;DHT22;6622;49.752;6.100;2022-08-03T13:48:02;34.20;99.90
13113;DHT22;6622;49.752;6.100;2022-08-03T13:50:29;34.10;99.90
13113;DHT22;6622;49.752;6.100;2022-08-03T13:52:56;34.20;99.90
13113;DHT22;6622;49.752;6.100;2022-08-03T13:55:22;34.20;99.90
13113;DHT22;6622;49.752;6.100;2022-08-03T13:57:50;34.10;99.90
13113;DHT22;6622;49.752;6.100;2022-08-03T14:00:16;34.10;99.90
13113;DHT22;6622;49.752;6.100;2022-08-03T14:02:43;34.10;99.90
13113;DHT22;6622;49.752;6.100;2022-08-03T14:05:10;33.90;99.90
13113;DHT22;6622;49.752;6.100;2022-08-03T14:07:37;33.90;99.90
13113;DHT22;6622;49.752;6.100;2022-08-03T14:10:04;33.90;99.90
13113;DHT22;6622;49.752;6.100;2022-08-03T14:12:30;33.90;99.90
13113;DHT22;6622;49.752;6.100;2022-08-03T14:14:57;33.70;99.90
13113;DHT22;6622;49.752;6.100;2022-08-03T14:17:23;33.80;99.90
13113;DHT22;6622;49.752;6.100;2022-08-03T14:19:50;33.90;99.90
13113;DHT22;6622;49.752;6.100;2022-08-03T14:22:17;34.00;99.90
13113;DHT22;6622;49.752;6.100;2022-08-03T14:24:43;34.10;99.90
13113;DHT22;6622;49.752;6.100;2022-08-03T14:27:10;34.20;99.90
13113;DHT22;6622;49.752;6.100;2022-08-03T14:29:37;33.80;99.90
13113;DHT22;6622;49.752;6.100;2022-08-03T14:32:04;33.80;99.90
13113;DHT22;6622;49.752;6.100;2022-08-03T14:34:31;33.70;99.90
13113;DHT22;6622;49.752;6.100;2022-08-03T14:36:57;34.00;99.90
13113;DHT22;6622;49.752;6.100;2022-08-03T14:39:25;34.00;99.90
13113;DHT22;6622;49.752;6.100;2022-08-03T14:41:51;34.00;99.90
13113;DHT22;6622;49.752;6.100;2022-08-03T14:44:18;34.10;99.90
13113;DHT22;6622;49.752;6.100;2022-08-03T14:46:45;34.10;99.90
13113;DHT22;6622;49.752;6.100;2022-08-03T14:49:12;34.00;99.90
13113;DHT22;6622;49.752;6.100;2022-08-03T14:51:39;33.90;99.90
13113;DHT22;6622;49.752;6.100;2022-08-03T14:54:05;33.90;99.90
13113;DHT22;6622;49.752;6.100;2022-08-03T14:56:32;34.00;99.90
13113;DHT22;6622;49.752;6.100;2022-08-03T14:58:58;34.00;99.90
13113;DHT22;6622;49.752;6.100;2022-08-03T15:01:25;33.90;99.90
13113;DHT22;6622;49.752;6.100;2022-08-03T15:03:52;33.60;99.90
13113;DHT22;6622;49.752;6.100;2022-08-03T15:06:18;33.60;99.90
13113;DHT22;6622;49.752;6.100;2022-08-03T15:08:45;33.70;99.90
13113;DHT22;6622;49.752;6.100;2022-08-03T15:11:12;33.90;99.90
13113;DHT22;6622;49.752;6.100;2022-08-03T15:13:38;33.90;99.90
13113;DHT22;6622;49.752;6.100;2022-08-03T15:16:05;34.00;99.90
13113;DHT22;6622;49.752;6.100;2022-08-03T15:18:31;34.00;99.90
13113;DHT22;6622;49.752;6.100;2022-08-03T15:20:58;33.80;99.90
13113;DHT22;6622;49.752;6.100;2022-08-03T15:23:25;33.60;99.90
13113;DHT22;6622;49.752;6.100;2022-08-03T15:25:52;33.50;99.90
13113;DHT22;6622;49.752;6.100;2022-08-03T15:28:19;33.50;99.90
13113;DHT22;6622;49.752;6.100;2022-08-03T15:30:50;33.60;99.90
13113;DHT22;6622;49.752;6.100;2022-08-03T15:33:15;33.60;99.90
13113;DHT22;6622;49.752;6.100;2022-08-03T15:35:41;33.50;99.90
13113;DHT22;6622;49.752;6.100;2022-08-03T15:38:08;33.50;99.90
13113;DHT22;6622;49.752;6.100;2022-08-03T15:40:34;33.40;99.90
13113;DHT22;6622;49.752;6.100;2022-08-03T15:43:01;33.50;99.90
13113;DHT22;6622;49.752;6.100;2022-08-03T15:45:28;33.60;99.90
13113;DHT22;6622;49.752;6.100;2022-08-03T15:47:54;33.50;99.90
13113;DHT22;6622;49.752;6.100;2022-08-03T15:50:21;33.70;99.90
13113;DHT22;6622;49.752;6.100;2022-08-03T15:52:48;33.70;99.90
13113;DHT22;6622;49.752;6.100;2022-08-03T15:55:14;33.70;99.90
13113;DHT22;6622;49.752;6.100;2022-08-03T15:57:41;33.50;99.90
13113;DHT22;6622;49.752;6.100;2022-08-03T16:00:08;33.50;99.90
13113;DHT22;6622;49.752;6.100;2022-08-03T16:02:34;33.50;99.90
13113;DHT22;6622;49.752;6.100;2022-08-03T16:05:01;33.50;99.90